createdAt,value
2018-05-01T00:02:15.903Z,7.60
2018-05-01T00:04:44.907Z,7.70
2018-05-01T00:07:13.924Z,7.60
2018-05-01T00:09:42.159Z,7.50
2018-05-01T00:12:10.410Z,7.50
2018-05-01T00:14:38.658Z,7.30
2018-05-01T00:17:07.652Z,7.50
2018-05-01T00:19:36.651Z,7.70
2018-05-01T00:22:04.866Z,7.70
2018-05-01T00:24:33.580Z,7.70
2018-05-01T00:27:01.814Z,7.50
2018-05-01T00:29:30.175Z,7.40
2018-05-01T00:31:59.174Z,7.50
2018-05-01T00:34:27.419Z,7.50
2018-05-01T00:36:55.651Z,7.60
2018-05-01T00:39:23.900Z,7.40
2018-05-01T00:41:52.897Z,7.30
2018-05-01T00:44:21.139Z,7.30
2018-05-01T00:46:49.385Z,7.30
2018-05-01T00:49:17.681Z,7.30
2018-05-01T00:51:47.431Z,7.40
2018-05-01T00:54:15.636Z,7.40
2018-05-01T00:56:43.909Z,7.50
2018-05-01T00:59:12.140Z,7.40
2018-05-01T01:01:40.368Z,7.20
2018-05-01T01:04:08.611Z,7.20
2018-05-01T01:06:36.910Z,7.30
2018-05-01T01:09:05.244Z,7.50
2018-05-01T01:11:33.493Z,7.30
2018-05-01T01:14:01.712Z,7.30
2018-05-01T01:16:29.997Z,7.40
2018-05-01T01:18:58.996Z,7.30
2018-05-01T01:21:27.260Z,7.40
2018-05-01T01:23:56.276Z,7.60
2018-05-01T01:26:24.528Z,7.60
2018-05-01T01:28:53.557Z,7.50
2018-05-01T01:31:21.778Z,7.50
2018-05-01T01:33:50.624Z,7.60
2018-05-01T01:36:18.353Z,7.40
2018-05-01T01:38:46.131Z,7.60
2018-05-01T01:41:13.870Z,7.70
2018-05-01T01:43:41.621Z,7.60
2018-05-01T01:46:09.374Z,7.40
2018-05-01T01:48:37.121Z,7.40
2018-05-01T01:51:04.864Z,7.20
2018-05-01T01:53:32.621Z,7.50
2018-05-01T01:56:00.369Z,7.50
2018-05-01T01:58:28.127Z,7.40
2018-05-01T02:00:55.871Z,7.30
2018-05-01T02:03:24.740Z,7.30
2018-05-01T02:05:52.471Z,7.30
2018-05-01T02:08:20.205Z,7.40
2018-05-01T02:10:48.729Z,7.30
2018-05-01T02:13:16.478Z,7.20
2018-05-01T02:15:44.998Z,7.70
2018-05-01T02:18:12.742Z,7.60
2018-05-01T02:20:40.535Z,7.40
2018-05-01T02:23:08.277Z,7.40
2018-05-01T02:25:36.028Z,7.50
2018-05-01T02:28:04.548Z,7.30
2018-05-01T02:30:32.370Z,7.30
2018-05-01T02:33:00.113Z,7.50
2018-05-01T02:35:27.868Z,7.40
2018-05-01T02:37:56.081Z,7.40
2018-05-01T02:40:23.840Z,7.50
2018-05-01T02:42:51.569Z,7.20
2018-05-01T02:45:19.346Z,7.20
2018-05-01T02:47:47.269Z,7.10
2018-05-01T02:50:15.032Z,7.30
2018-05-01T02:52:42.768Z,7.50
2018-05-01T02:55:10.511Z,7.40
2018-05-01T02:57:38.270Z,7.50
2018-05-01T03:00:06.799Z,7.30
2018-05-01T03:02:34.563Z,7.30
2018-05-01T03:05:02.296Z,7.40
2018-05-01T03:07:30.823Z,7.50
2018-05-01T03:09:58.580Z,7.50
2018-05-01T03:12:26.305Z,7.30
2018-05-01T03:14:55.272Z,7.40
2018-05-01T03:17:23.039Z,7.40
2018-05-01T03:19:50.953Z,7.40
2018-05-01T03:22:19.456Z,7.40
2018-05-01T03:24:47.225Z,7.40
2018-05-01T03:27:14.973Z,7.50
2018-05-01T03:29:42.731Z,7.50
2018-05-01T03:32:10.981Z,7.50
2018-05-01T03:34:39.049Z,7.40
2018-05-01T03:37:06.778Z,7.50
2018-05-01T03:39:35.287Z,7.50
2018-05-01T03:42:03.059Z,7.50
2018-05-01T03:44:30.781Z,7.50
2018-05-01T03:46:58.532Z,7.50
2018-05-01T03:49:26.276Z,7.40
2018-05-01T03:51:54.036Z,7.60
2018-05-01T03:54:22.537Z,7.50
2018-05-01T03:56:50.296Z,7.50
2018-05-01T03:59:18.039Z,7.50
2018-05-01T04:01:46.568Z,7.40
2018-05-01T04:04:14.396Z,7.40
2018-05-01T04:06:43.017Z,7.40
2018-05-01T04:09:10.782Z,7.40
2018-05-01T04:11:38.540Z,7.50
2018-05-01T04:14:06.284Z,7.50
2018-05-01T04:16:34.048Z,7.60
2018-05-01T04:19:01.965Z,7.60
2018-05-01T04:21:29.723Z,7.60
2018-05-01T04:23:57.463Z,7.40
2018-05-01T04:26:25.219Z,7.50
2018-05-01T04:28:52.966Z,7.40
2018-05-01T04:31:20.705Z,7.50
2018-05-01T04:33:48.468Z,7.30
2018-05-01T04:36:17.051Z,7.60
2018-05-01T04:38:44.823Z,7.50
2018-05-01T04:41:12.582Z,7.60
2018-05-01T04:43:41.100Z,7.40
2018-05-01T04:46:08.858Z,7.50
2018-05-01T04:48:36.619Z,7.40
2018-05-01T04:51:04.452Z,7.60
2018-05-01T04:53:32.187Z,7.50
2018-05-01T04:55:59.931Z,7.60
2018-05-01T04:58:27.743Z,7.60
2018-05-01T05:00:56.208Z,7.50
2018-05-01T05:03:23.960Z,7.40
2018-05-01T05:05:51.720Z,7.60
2018-05-01T05:08:20.235Z,7.70
2018-05-01T05:10:47.992Z,7.70
2018-05-01T05:13:15.750Z,7.60
2018-05-01T05:15:44.296Z,7.70
2018-05-01T05:18:12.082Z,7.60
2018-05-01T05:20:39.818Z,7.80
2018-05-01T05:23:07.563Z,7.50
2018-05-01T05:25:35.307Z,7.70
2018-05-01T05:28:03.821Z,7.60
2018-05-01T05:30:31.577Z,7.60
2018-05-01T05:32:59.337Z,7.70
2018-05-01T05:35:27.867Z,8.00
2018-05-01T05:37:55.623Z,7.90
2018-05-01T05:40:23.362Z,7.70
2018-05-01T05:42:51.965Z,7.60
2018-05-01T05:45:19.627Z,7.50
2018-05-01T05:47:48.153Z,7.60
2018-05-01T05:50:15.920Z,7.50
2018-05-01T05:52:44.284Z,7.70
2018-05-01T05:55:12.025Z,7.70
2018-05-01T05:57:40.563Z,7.90
2018-05-01T06:00:08.982Z,7.90
2018-05-01T06:02:37.608Z,7.70
2018-05-01T06:05:05.328Z,7.70
2018-05-01T06:07:33.084Z,7.60
2018-05-01T06:10:00.819Z,7.70
2018-05-01T06:12:28.591Z,7.70
2018-05-01T06:14:56.333Z,7.80
2018-05-01T06:17:24.176Z,7.80
2018-05-01T06:19:52.559Z,7.80
2018-05-01T06:22:20.332Z,7.90
2018-05-01T06:24:48.079Z,7.80
2018-05-01T06:27:16.632Z,7.80
2018-05-01T06:29:44.399Z,8.00
2018-05-01T06:32:13.660Z,7.80
2018-05-01T06:34:41.435Z,7.80
2018-05-01T06:37:09.200Z,8.00
2018-05-01T06:39:36.966Z,8.00
2018-05-01T06:42:04.684Z,8.10
2018-05-01T06:44:32.459Z,8.00
2018-05-01T06:47:00.194Z,8.00
2018-05-01T06:49:27.943Z,7.90
2018-05-01T06:51:55.700Z,8.00
2018-05-01T06:54:23.460Z,7.90
2018-05-01T06:56:52.070Z,8.10
2018-05-01T06:59:20.293Z,8.10
2018-05-01T07:01:49.584Z,8.00
2018-05-01T07:04:17.362Z,8.00
2018-05-01T07:06:45.064Z,8.10
2018-05-01T07:09:12.803Z,8.10
2018-05-01T07:11:41.381Z,8.40
2018-05-01T07:14:09.086Z,8.40
2018-05-01T07:16:36.824Z,8.20
2018-05-01T07:19:05.730Z,8.30
2018-05-01T07:21:34.229Z,8.40
2018-05-01T07:24:01.971Z,8.40
2018-05-01T07:26:30.516Z,8.60
2018-05-01T07:28:58.280Z,8.60
2018-05-01T07:31:26.040Z,8.60
2018-05-01T07:33:53.800Z,8.70
2018-05-01T07:36:21.549Z,8.70
2018-05-01T07:38:50.073Z,9.00
2018-05-01T07:41:17.813Z,9.00
2018-05-01T07:43:45.555Z,9.20
2018-05-01T07:46:14.059Z,9.10
2018-05-01T07:48:42.606Z,9.20
2018-05-01T07:51:10.357Z,9.10
2018-05-01T07:53:38.106Z,9.30
2018-05-01T07:56:05.835Z,9.20
2018-05-01T07:58:33.600Z,9.20
2018-05-01T08:01:01.339Z,8.90
2018-05-01T08:03:29.073Z,9.10
2018-05-01T08:05:56.843Z,9.30
2018-05-01T08:08:25.342Z,9.40
2018-05-01T08:10:53.128Z,9.40
2018-05-01T08:13:20.848Z,9.50
2018-05-01T08:15:49.373Z,9.40
2018-05-01T08:18:17.221Z,9.40
2018-05-01T08:20:45.813Z,10.00
2018-05-01T08:23:14.330Z,10.00
2018-05-01T08:25:42.108Z,10.00
2018-05-01T08:28:09.859Z,10.20
2018-05-01T08:30:37.620Z,10.30
2018-05-01T08:33:05.356Z,10.40
2018-05-01T08:35:33.937Z,10.30
2018-05-01T08:38:01.790Z,10.30
2018-05-01T08:40:30.060Z,10.20
2018-05-01T08:42:57.825Z,10.20
2018-05-01T08:45:25.653Z,10.20
2018-05-01T08:47:53.455Z,10.30
2018-05-01T08:50:21.162Z,10.40
2018-05-01T08:52:48.910Z,10.50
2018-05-01T08:55:16.664Z,10.60
2018-05-01T08:57:44.415Z,10.70
2018-05-01T09:00:12.308Z,10.60
2018-05-01T09:02:40.043Z,11.10
2018-05-01T09:05:08.598Z,11.80
2018-05-01T09:07:36.320Z,11.70
2018-05-01T09:10:04.145Z,12.00
2018-05-01T09:12:31.860Z,11.80
2018-05-01T09:14:59.648Z,11.90
2018-05-01T09:17:27.405Z,11.70
2018-05-01T09:19:55.168Z,11.70
2018-05-01T09:22:22.927Z,11.70
2018-05-01T09:24:50.694Z,11.80
2018-05-01T09:27:19.227Z,11.80
2018-05-01T09:29:46.992Z,11.80
2018-05-01T09:32:14.740Z,12.10
2018-05-01T09:34:42.506Z,12.60
2018-05-01T09:37:10.248Z,13.20
2018-05-01T09:39:38.760Z,13.60
2018-05-01T09:42:06.515Z,13.60
2018-05-01T09:44:35.038Z,13.40
2018-05-01T09:47:02.827Z,13.30
2018-05-01T09:49:30.560Z,13.60
2018-05-01T09:51:58.409Z,13.50
2018-05-01T09:54:26.628Z,13.00
2018-05-01T09:56:54.879Z,13.40
2018-05-01T09:59:23.144Z,13.50
2018-05-01T10:01:52.411Z,13.40
2018-05-01T10:04:20.664Z,13.40
2018-05-01T10:06:48.973Z,13.70
2018-05-01T10:09:17.221Z,13.70
2018-05-01T10:11:45.450Z,13.50
2018-05-01T10:14:13.716Z,13.00
2018-05-01T10:16:41.979Z,12.90
2018-05-01T10:19:10.233Z,12.60
2018-05-01T10:21:38.491Z,12.60
2018-05-01T10:24:07.489Z,12.50
2018-05-01T10:26:35.748Z,12.50
2018-05-01T10:29:04.522Z,12.80
2018-05-01T10:31:32.777Z,12.90
2018-05-01T10:34:01.063Z,13.00
2018-05-01T10:36:30.056Z,13.20
2018-05-01T10:38:58.865Z,13.30
2018-05-01T10:41:27.024Z,13.30
2018-05-01T10:43:55.682Z,13.30
2018-05-01T10:46:24.018Z,13.40
2018-05-01T10:48:52.390Z,13.40
2018-05-01T10:51:20.676Z,13.40
2018-05-01T10:53:48.940Z,13.20
2018-05-01T10:56:17.303Z,13.10
2018-05-01T10:58:45.549Z,13.20
2018-05-01T11:01:13.798Z,13.20
2018-05-01T11:03:42.808Z,13.40
2018-05-01T11:06:11.325Z,13.40
2018-05-01T11:08:39.590Z,13.30
2018-05-01T11:11:07.856Z,13.20
2018-05-01T11:13:36.228Z,13.40
2018-05-01T11:16:04.583Z,13.30
2018-05-01T11:18:32.749Z,13.30
2018-05-01T11:21:01.026Z,13.40
2018-05-01T11:23:29.265Z,13.60
2018-05-01T11:25:57.589Z,13.50
2018-05-01T11:28:25.795Z,13.90
2018-05-01T11:30:54.077Z,14.10
2018-05-01T11:33:23.109Z,14.30
2018-05-01T11:35:51.340Z,14.30
2018-05-01T11:38:20.373Z,14.40
2018-05-01T11:40:49.163Z,14.40
2018-05-01T11:43:17.420Z,14.50
2018-05-01T11:48:12.046Z,14.60
2018-05-01T11:50:41.080Z,14.50
2018-05-01T11:53:09.360Z,14.50
2018-05-01T11:55:37.634Z,14.80
2018-05-01T11:58:05.857Z,15.00
2018-05-01T12:00:34.184Z,14.60
2018-05-01T12:03:02.472Z,14.80
2018-05-01T12:05:30.700Z,15.00
2018-05-01T12:07:58.971Z,15.10
2018-05-01T12:10:27.265Z,15.30
2018-05-01T12:12:55.520Z,15.30
2018-05-01T12:15:23.751Z,15.30
2018-05-01T12:17:52.788Z,15.70
2018-05-01T12:20:21.033Z,15.60
2018-05-01T12:22:50.188Z,16.30
2018-05-01T12:25:18.444Z,16.30
2018-05-01T12:27:47.690Z,16.30
2018-05-01T12:30:16.551Z,16.20
2018-05-01T12:32:44.819Z,16.40
2018-05-01T12:35:13.956Z,16.50
2018-05-01T12:37:42.225Z,16.60
2018-05-01T12:40:10.482Z,16.60
2018-05-01T12:42:38.708Z,16.80
2018-05-01T12:45:06.957Z,16.90
2018-05-01T12:47:35.222Z,17.20
2018-05-01T12:50:03.460Z,17.20
2018-05-01T12:52:31.720Z,17.20
2018-05-01T12:55:00.337Z,17.60
2018-05-01T12:57:28.580Z,17.30
2018-05-01T12:59:57.772Z,17.20
2018-05-01T13:02:26.723Z,17.80
2018-05-01T13:04:55.747Z,17.90
2018-05-01T13:07:24.593Z,17.90
2018-05-01T13:09:52.916Z,18.40
2018-05-01T13:12:21.160Z,18.70
2018-05-01T13:14:49.397Z,18.60
2018-05-01T13:17:17.638Z,18.70
2018-05-01T13:19:45.871Z,18.60
2018-05-01T13:22:14.118Z,18.10
2018-05-01T13:24:43.150Z,18.30
2018-05-01T13:27:11.388Z,18.30
2018-05-01T13:29:40.549Z,18.60
2018-05-01T13:32:08.800Z,18.60
2018-05-01T13:34:37.053Z,18.40
2018-05-01T13:37:06.076Z,18.40
2018-05-01T13:39:34.330Z,18.40
2018-05-01T13:42:03.348Z,18.90
2018-05-01T13:44:32.193Z,18.90
2018-05-01T13:47:01.207Z,18.80
2018-05-01T13:49:29.626Z,18.80
2018-05-01T13:51:58.053Z,18.90
2018-05-01T13:54:26.361Z,18.90
2018-05-01T13:56:54.613Z,18.60
2018-05-01T13:59:22.880Z,18.60
2018-05-01T14:01:51.140Z,18.40
2018-05-01T14:04:19.437Z,18.10
2018-05-01T14:06:48.652Z,18.30
2018-05-01T14:09:17.656Z,18.50
2018-05-01T14:11:45.960Z,18.50
2018-05-01T14:14:14.474Z,18.50
2018-05-01T14:16:42.699Z,18.80
2018-05-01T14:19:10.953Z,18.90
2018-05-01T14:21:39.227Z,18.60
2018-05-01T14:24:07.480Z,17.90
2018-05-01T14:26:35.732Z,18.20
2018-05-01T14:29:03.965Z,18.30
2018-05-01T14:31:32.235Z,18.30
2018-05-01T14:34:01.224Z,18.30
2018-05-01T14:36:30.250Z,18.20
2018-05-01T14:38:58.538Z,18.30
2018-05-01T14:41:26.777Z,18.10
2018-05-01T14:43:55.008Z,18.00
2018-05-01T14:46:23.272Z,17.70
2018-05-01T14:48:51.496Z,17.60
2018-05-01T14:51:19.743Z,17.60
2018-05-01T14:53:47.966Z,17.50
2018-05-01T14:56:16.291Z,17.30
2018-05-01T14:58:45.796Z,16.40
2018-05-01T15:01:14.852Z,16.80
2018-05-01T15:03:43.860Z,16.70
2018-05-01T15:06:12.105Z,16.70
2018-05-01T15:08:40.375Z,17.10
2018-05-01T15:11:08.614Z,17.10
2018-05-01T15:13:36.869Z,17.20
2018-05-01T15:16:05.101Z,17.20
2018-05-01T15:18:33.855Z,17.40
2018-05-01T15:21:02.132Z,17.30
2018-05-01T15:23:30.400Z,17.50
2018-05-01T15:25:58.644Z,17.60
2018-05-01T15:28:27.013Z,17.70
2018-05-01T15:30:56.085Z,16.90
2018-05-01T15:33:24.325Z,16.80
2018-05-01T15:35:53.151Z,16.40
2018-05-01T15:38:21.401Z,16.50
2018-05-01T15:40:49.744Z,16.60
2018-05-01T15:43:18.004Z,16.40
2018-05-01T15:45:46.247Z,16.40
2018-05-01T15:48:14.478Z,16.20
2018-05-01T15:50:42.708Z,16.20
2018-05-01T15:53:10.959Z,15.90
2018-05-01T15:55:39.199Z,16.10
2018-05-01T15:58:07.476Z,16.10
2018-05-01T16:00:35.757Z,15.80
2018-05-01T16:03:04.025Z,15.90
2018-05-01T16:05:32.298Z,15.90
2018-05-01T16:08:00.550Z,15.80
2018-05-01T16:10:29.548Z,15.80
2018-05-01T16:12:57.884Z,15.80
2018-05-01T16:15:26.149Z,15.70
2018-05-01T16:17:54.410Z,15.60
2018-05-01T16:20:22.664Z,15.40
2018-05-01T16:22:51.700Z,15.30
2018-05-01T16:25:20.543Z,15.20
2018-05-01T16:27:48.813Z,15.20
2018-05-01T16:30:17.048Z,15.20
2018-05-01T16:32:45.335Z,15.20
2018-05-01T16:35:13.629Z,15.20
2018-05-01T16:37:41.852Z,15.10
2018-05-01T16:40:11.007Z,15.10
2018-05-01T16:42:39.223Z,15.00
2018-05-01T16:45:07.499Z,15.00
2018-05-01T16:47:35.767Z,14.90
2018-05-01T16:50:04.005Z,14.70
2018-05-01T16:52:32.292Z,14.60
2018-05-01T16:55:00.524Z,14.80
2018-05-01T16:57:28.817Z,14.80
2018-05-01T16:59:57.072Z,14.70
2018-05-01T17:02:25.454Z,14.60
2018-05-01T17:04:53.689Z,14.60
2018-05-01T17:07:21.990Z,14.60
2018-05-01T17:09:50.982Z,14.60
2018-05-01T17:12:19.223Z,14.60
2018-05-01T17:14:48.315Z,14.70
2018-05-01T17:17:16.599Z,14.70
2018-05-01T17:19:44.855Z,14.50
2018-05-01T17:22:13.119Z,14.50
2018-05-01T17:24:41.413Z,14.50
2018-05-01T17:27:09.655Z,14.40
2018-05-01T17:29:37.908Z,14.40
2018-05-01T17:32:06.148Z,14.30
2018-05-01T17:34:34.397Z,14.20
2018-05-01T17:37:02.666Z,14.00
2018-05-01T17:39:31.725Z,14.10
2018-05-01T17:41:59.960Z,14.10
2018-05-01T17:44:28.239Z,14.20
2018-05-01T17:46:57.296Z,14.20
2018-05-01T17:49:25.591Z,14.10
2018-05-01T17:51:53.820Z,14.10
2018-05-01T17:54:22.094Z,14.00
2018-05-01T17:56:50.348Z,14.00
2018-05-01T17:59:19.375Z,14.00
2018-05-01T18:01:47.640Z,14.00
2018-05-01T18:04:15.992Z,13.90
2018-05-01T18:06:44.334Z,13.90
2018-05-01T18:09:12.588Z,13.90
2018-05-01T18:11:40.880Z,13.90
2018-05-01T18:14:09.156Z,13.80
2018-05-01T18:16:37.397Z,13.80
2018-05-01T18:19:05.668Z,13.80
2018-05-01T18:21:33.892Z,13.70
2018-05-01T18:24:02.934Z,13.70
2018-05-01T18:26:31.180Z,13.60
2018-05-01T18:28:59.452Z,13.60
2018-05-01T18:31:28.520Z,13.80
2018-05-01T18:33:56.808Z,13.80
2018-05-01T18:36:25.049Z,13.80
2018-05-01T18:38:53.317Z,13.80
2018-05-01T18:41:21.547Z,13.70
2018-05-01T18:43:49.805Z,13.80
2018-05-01T18:46:18.076Z,13.80
2018-05-01T18:48:46.395Z,13.60
2018-05-01T18:51:15.120Z,13.70
2018-05-01T18:53:43.366Z,13.60
2018-05-01T18:56:11.688Z,13.20
2018-05-01T18:58:39.945Z,13.10
2018-05-01T19:01:09.425Z,13.10
2018-05-01T19:03:37.684Z,13.10
2018-05-01T19:06:05.965Z,12.90
2018-05-01T19:08:34.225Z,13.00
2018-05-01T19:11:02.499Z,13.00
2018-05-01T19:13:31.518Z,13.10
2018-05-01T19:15:59.765Z,13.10
2018-05-01T19:18:28.805Z,13.10
2018-05-01T19:20:57.053Z,13.00
2018-05-01T19:23:25.331Z,13.10
2018-05-01T19:25:54.196Z,13.00
2018-05-01T19:28:22.452Z,13.00
2018-05-01T19:30:50.810Z,12.70
2018-05-01T19:33:19.572Z,12.60
2018-05-01T19:35:48.614Z,12.20
2018-05-01T19:38:16.884Z,12.20
2018-05-01T19:40:45.187Z,12.40
2018-05-01T19:43:13.496Z,12.30
2018-05-01T19:45:41.781Z,12.40
2018-05-01T19:48:10.020Z,12.10
2018-05-01T19:50:38.341Z,12.10
2018-05-01T19:53:06.569Z,11.80
2018-05-01T19:55:34.935Z,11.60
2018-05-01T19:58:03.199Z,11.30
2018-05-01T20:00:31.466Z,11.10
2018-05-01T20:03:00.447Z,11.10
2018-05-01T20:05:29.318Z,11.00
2018-05-01T20:07:58.776Z,10.90
2018-05-01T20:10:27.035Z,11.10
2018-05-01T20:12:55.342Z,11.10
2018-05-01T20:15:23.612Z,11.10
2018-05-01T20:17:51.852Z,10.90
2018-05-01T20:20:20.102Z,10.70
2018-05-01T20:22:49.195Z,10.70
2018-05-01T20:25:18.230Z,10.80
2018-05-01T20:27:46.479Z,10.80
2018-05-01T20:30:15.524Z,10.80
2018-05-01T20:32:43.746Z,10.80
2018-05-01T20:35:12.744Z,10.50
2018-05-01T20:37:41.795Z,10.50
2018-05-01T20:40:10.061Z,10.50
2018-05-01T20:42:39.065Z,10.70
2018-05-01T20:45:07.293Z,10.70
2018-05-01T20:47:35.580Z,10.60
2018-05-01T20:50:04.777Z,11.00
2018-05-01T20:52:33.915Z,11.10
2018-05-01T20:55:02.145Z,10.90
2018-05-01T20:57:30.397Z,11.00
2018-05-01T20:59:58.681Z,11.20
2018-05-01T21:02:26.940Z,11.40
2018-05-01T21:04:55.249Z,11.20
2018-05-01T21:07:23.502Z,11.20
2018-05-01T21:09:51.746Z,11.00
2018-05-01T21:12:20.021Z,11.10
2018-05-01T21:14:48.252Z,11.10
2018-05-01T21:17:16.856Z,10.80
2018-05-01T21:19:45.096Z,10.90
2018-05-01T21:22:15.099Z,11.00
2018-05-01T21:24:44.018Z,11.00
2018-05-01T21:27:13.043Z,11.10
2018-05-01T21:29:41.264Z,11.10
2018-05-01T21:32:09.529Z,11.40
2018-05-01T21:34:37.771Z,11.00
2018-05-01T21:37:06.036Z,11.20
2018-05-01T21:39:35.050Z,11.20
2018-05-01T21:42:03.286Z,11.20
2018-05-01T21:44:31.575Z,11.00
2018-05-01T21:46:59.816Z,10.70
2018-05-01T21:49:28.557Z,10.50
2018-05-01T21:51:56.801Z,10.80
2018-05-01T21:54:25.039Z,10.60
2018-05-01T21:56:54.060Z,10.20
2018-05-01T21:59:22.777Z,10.20
2018-05-01T22:01:51.033Z,10.00
2018-05-01T22:04:19.271Z,10.30
2018-05-01T22:06:48.420Z,10.40
2018-05-01T22:09:16.653Z,10.30
2018-05-01T22:11:44.920Z,10.30
2018-05-01T22:14:13.682Z,10.40
2018-05-01T22:16:41.897Z,10.20
2018-05-01T22:19:10.229Z,10.30
2018-05-01T22:21:38.450Z,10.50
2018-05-01T22:24:06.688Z,10.50
2018-05-01T22:26:34.992Z,10.50
2018-05-01T22:29:03.236Z,10.40
2018-05-01T22:31:31.473Z,10.50
2018-05-01T22:34:00.789Z,10.80
2018-05-01T22:36:29.754Z,10.50
2018-05-01T22:38:58.002Z,10.50
2018-05-01T22:41:26.244Z,10.40
2018-05-01T22:43:54.492Z,10.30
2018-05-01T22:46:22.732Z,10.40
2018-05-01T22:48:52.332Z,10.50
2018-05-01T22:51:21.352Z,10.70
2018-05-01T22:53:50.341Z,10.80
2018-05-01T22:56:19.337Z,10.90
2018-05-01T22:58:48.372Z,10.60
2018-05-01T23:01:16.628Z,10.60
2018-05-01T23:03:44.892Z,10.60
2018-05-01T23:06:14.028Z,10.20
2018-05-01T23:08:42.277Z,10.10
2018-05-01T23:11:11.912Z,10.40
2018-05-01T23:13:40.900Z,10.10
2018-05-01T23:16:10.417Z,9.70
2018-05-01T23:18:38.664Z,9.70
2018-05-01T23:21:06.948Z,10.00
2018-05-01T23:23:35.206Z,10.20
2018-05-01T23:26:03.529Z,9.90
2018-05-01T23:28:32.536Z,10.40
2018-05-01T23:31:01.248Z,10.40
2018-05-01T23:33:29.496Z,10.20
2018-05-01T23:35:58.492Z,9.90
2018-05-01T23:38:27.499Z,9.80
2018-05-01T23:40:56.500Z,9.60
2018-05-01T23:45:52.155Z,9.70
2018-05-01T23:48:20.394Z,9.70
2018-05-01T23:50:48.705Z,9.60
2018-05-01T23:53:17.008Z,9.80
2018-05-01T23:55:45.246Z,9.70
2018-05-01T23:58:13.551Z,9.40
